Time;durP1;ratioP1;P1;durP2;ratioP2;P2;SDS_P1;SDS_P2;PMS_P1;PMS_P2;Temp;Humidity;BMP_temperature;BMP_pressure;BME280_temperature;BME280_humidity;BME280_pressure;Samples;Min_cycle;Max_cycle;Signal;HPM_P1;HPM_P2
2021/03/12 00:00:38;;;;;;;17.45;9.27;;;;;;;7.05;85.89;97555.88;5058883;28;20017;-81
2021/03/12 00:03:06;;;;;;;13.02;8.40;;;;;;;7.08;85.55;97559.97;5060392;28;20037;-83
2021/03/12 00:05:31;;;;;;;13.25;9.40;;;;;;;7.09;85.70;97561.56;5063356;28;20025;-79
2021/03/12 00:07:57;;;;;;;15.98;10.13;;;;;;;7.08;85.40;97563.47;5065226;28;20145;-85
2021/03/12 00:10:24;;;;;;;;;;;;;;;7.08;85.28;97566.19;5067154;28;20032;-88
2021/03/12 00:12:50;;;;;;;16.83;9.60;;;;;;;7.10;85.03;97564.03;5060408;28;19941;-79
2021/03/12 00:15:19;;;;;;;11.00;8.57;;;;;;;7.03;85.41;97577.13;5057699;28;20036;-79
2021/03/12 00:17:46;;;;;;;13.95;9.43;;;;;;;7.04;85.40;97562.44;5057682;28;20036;-78
2021/03/12 00:20:15;;;;;;;14.55;9.00;;;;;;;7.05;85.07;97564.03;5058003;28;20866;-82
2021/03/12 00:22:40;;;;;;;14.00;8.65;;;;;;;6.98;84.98;97545.31;5058248;28;20021;-80
2021/03/12 00:25:14;;;;;;;13.23;8.13;;;;;;;7.01;85.31;97557.56;5057515;28;20021;-83
2021/03/12 00:27:40;;;;;;;12.23;7.78;;;;;;;7.05;85.26;97560.53;5057607;28;20101;-82
2021/03/12 00:30:08;;;;;;;11.68;6.93;;;;;;;7.05;85.01;97566.75;5057358;28;20031;-84
2021/03/12 00:32:34;;;;;;;12.23;9.32;;;;;;;7.09;84.78;97559.66;5057294;28;20055;-81
2021/03/12 00:35:01;;;;;;;17.35;9.75;;;;;;;7.02;84.63;97561.88;5057428;28;20048;-80
2021/03/12 00:37:26;;;;;;;15.50;9.13;;;;;;;7.07;84.78;97563.78;5057583;28;20448;-83
2021/03/12 00:39:52;;;;;;;14.13;8.95;;;;;;;7.13;84.73;97571.63;5057077;28;20021;-82
2021/03/12 00:42:17;;;;;;;15.82;10.23;;;;;;;7.10;84.54;97572.19;5056853;28;20040;-81
2021/03/12 00:44:43;;;;;;;12.00;8.02;;;;;;;7.02;84.88;97567.31;5056962;28;20094;-82
2021/03/12 00:47:09;;;;;;;13.88;9.27;;;;;;;7.05;85.13;97574.91;5057195;28;20381;-80
2021/03/12 00:49:34;;;;;;;14.68;8.80;;;;;;;7.13;84.76;97573.53;5056027;28;20040;-78
2021/03/12 00:52:00;;;;;;;11.80;8.45;;;;;;;7.15;84.36;97569.41;5057387;28;20452;-77
2021/03/12 00:54:25;;;;;;;;;;;;;;;7.14;84.62;97573.22;5057729;28;20031;-77
2021/03/12 00:56:50;;;;;;;9.90;7.03;;;;;;;7.18;84.25;97571.56;5053843;28;20393;-78
2021/03/12 00:59:15;;;;;;;;;;;;;;;7.22;84.14;97567.19;5054067;28;20056;-79
2021/03/12 01:01:41;;;;;;;8.60;6.82;;;;;;;7.16;84.50;97573.78;5055350;28;19913;-86
2021/03/12 01:04:06;;;;;;;10.73;7.88;;;;;;;7.22;84.40;97572.63;5054259;28;20143;-85
2021/03/12 01:06:32;;;;;;;9.20;6.50;;;;;;;7.26;84.18;97573.72;5055281;28;20067;-90
2021/03/12 01:08:57;;;;;;;;;;;;;;;7.24;84.45;97573.16;5046986;28;20025;-87
2021/03/12 01:11:22;;;;;;;9.27;6.15;;;;;;;7.17;84.97;97556.38;5049668;28;19925;-86
2021/03/12 01:13:48;;;;;;;7.32;6.28;;;;;;;7.27;84.79;97553.56;5034416;28;20037;-81
2021/03/12 01:16:13;;;;;;;10.60;7.97;;;;;;;7.28;84.47;97555.19;5048761;28;20060;-82
2021/03/12 01:18:39;;;;;;;11.85;7.93;;;;;;;7.23;85.15;97540.81;5054272;28;20036;-85
2021/03/12 01:21:05;;;;;;;9.93;6.93;;;;;;;7.25;85.58;97547.59;5054651;28;20032;-83
2021/03/12 01:23:30;;;;;;;8.75;7.20;;;;;;;7.24;85.94;97545.97;5054457;28;20105;-86
2021/03/12 01:25:56;;;;;;;9.50;7.60;;;;;;;7.32;86.06;97550.81;5035357;28;20462;-84
2021/03/12 01:28:21;;;;;;;10.70;8.30;;;;;;;7.33;86.11;97548.91;5034434;28;20033;-86
2021/03/12 01:30:49;;;;;;;8.98;6.50;;;;;;;7.23;86.96;97544.34;5034401;28;20152;-87
2021/03/12 01:33:14;;;;;;;10.07;7.25;;;;;;;7.27;88.08;97548.09;5033278;28;20025;-84
2021/03/12 01:35:40;;;;;;;10.60;6.78;;;;;;;7.24;88.42;97548.69;5033747;28;20100;-80
2021/03/12 01:38:06;;;;;;;8.65;6.55;;;;;;;7.28;89.10;97543.47;5033839;28;20123;-78
2021/03/12 01:40:33;;;;;;;10.93;7.10;;;;;;;7.31;88.92;97546.44;5033524;28;20022;-82
2021/03/12 01:43:02;;;;;;;10.30;6.95;;;;;;;7.32;89.35;97542.66;5045326;28;20029;-81
2021/03/12 01:45:51;;;;;;;10.27;6.57;;;;;;;7.29;90.01;97537.78;5053610;28;20475;-79
2021/03/12 01:48:21;;;;;;;11.60;7.65;;;;;;;7.21;90.71;97532.13;5051888;28;20029;-88
2021/03/12 01:50:51;;;;;;;9.88;6.93;;;;;;;7.21;91.24;97524.75;5053620;28;20122;-79
2021/03/12 01:53:21;;;;;;;7.35;5.68;;;;;;;7.27;91.22;97537.22;5053699;28;20035;-82
2021/03/12 01:55:47;;;;;;;16.05;9.95;;;;;;;7.14;92.31;97531.66;5053586;28;20029;-81
2021/03/12 01:58:12;;;;;;;17.73;11.07;;;;;;;7.23;92.55;97536.19;5054841;28;20366;-91
2021/03/12 02:00:38;;;;;;;15.93;9.70;;;;;;;7.22;91.61;97515.53;5058548;28;20045;-93
2021/03/12 02:03:07;;;;;;;13.75;9.48;;;;;;;7.10;92.83;97525.13;5062820;28;20032;-90
2021/03/12 02:05:34;;;;;;;16.73;11.02;;;;;;;7.13;93.44;97536.25;5064031;28;20033;-85
2021/03/12 02:07:59;;;;;;;12.85;8.90;;;;;;;7.06;94.50;97524.88;5052123;28;20033;-76
2021/03/12 02:10:27;;;;;;;12.75;8.15;;;;;;;7.04;94.24;97527.09;5052344;28;20028;-81
2021/03/12 02:13:04;;;;;;;11.02;8.32;;;;;;;7.06;94.02;97530.31;5050749;28;20025;-78
2021/03/12 02:15:49;;;;;;;10.30;8.15;;;;;;;7.03;94.06;97530.06;5052211;28;20032;-84
2021/03/12 02:18:36;;;;;;;15.95;9.90;;;;;;;6.98;94.93;97528.22;5051882;28;20035;-80
2021/03/12 02:21:10;;;;;;;;;;;;;;;6.93;95.87;97509.22;5052611;28;20112;-78
2021/03/12 02:23:51;;;;;;;14.13;7.93;;;;;;;6.93;96.09;97517.38;5051988;28;20258;-78
2021/03/12 02:26:42;;;;;;;10.55;7.68;;;;;;;7.00;96.24;97526.03;5051935;28;20037;-78
2021/03/12 02:29:10;;;;;;;13.52;9.35;;;;;;;7.04;97.13;97531.72;5051768;28;20033;-80
2021/03/12 02:31:37;;;;;;;11.00;8.15;;;;;;;6.97;97.61;97532.03;5051874;28;20028;-76
2021/03/12 02:34:11;;;;;;;15.18;10.40;;;;;;;7.05;98.05;97534.13;5052171;28;20029;-78
2021/03/12 02:36:41;;;;;;;13.25;9.55;;;;;;;6.97;98.08;97532.84;5051692;28;20057;-81
2021/03/12 02:39:11;;;;;;;13.23;8.93;;;;;;;6.94;97.82;97532.59;5050391;28;20053;-78
2021/03/12 02:41:38;;;;;;;19.58;13.65;;;;;;;6.98;97.99;97533.66;5051892;28;20703;-81
2021/03/12 02:44:07;;;;;;;16.92;10.00;;;;;;;6.98;98.44;97533.66;5052208;28;20036;-81
2021/03/12 02:46:34;;;;;;;14.40;10.20;;;;;;;7.04;98.28;97535.25;5052290;28;20025;-83
2021/03/12 02:49:00;;;;;;;8.73;6.28;;;;;;;6.95;97.62;97534.22;5043344;28;20028;-83
2021/03/12 02:51:26;;;;;;;9.48;6.15;;;;;;;6.88;97.63;97520.13;5032223;28;20029;-89
2021/03/12 02:53:52;;;;;;;7.72;5.93;;;;;;;6.81;97.74;97517.72;5032535;28;20091;-84
2021/03/12 02:56:20;;;;;;;8.43;6.05;;;;;;;6.81;97.74;97522.34;5032283;28;20040;-83
2021/03/12 02:58:47;;;;;;;7.30;4.78;;;;;;;6.96;97.77;97524.97;5031728;28;20029;-83
2021/03/12 03:01:13;;;;;;;7.72;6.30;;;;;;;7.02;98.21;97521.09;5031872;28;20041;-85
2021/03/12 03:03:40;;;;;;;8.57;5.65;;;;;;;7.10;97.93;97522.41;5031831;28;20037;-84
2021/03/12 03:06:07;;;;;;;7.03;5.25;;;;;;;6.95;97.99;97517.91;5030173;28;20025;-83
2021/03/12 03:08:35;;;;;;;4.75;4.07;;;;;;;6.85;99.27;97507.09;5031702;28;20025;-75
2021/03/12 03:11:04;;;;;;;9.80;6.22;;;;;;;6.79;99.15;97513.66;5031042;28;20032;-75
2021/03/12 03:13:34;;;;;;;11.88;6.53;;;;;;;6.76;99.49;97508.81;5031193;28;20359;-75
2021/03/12 03:16:01;;;;;;;7.20;5.35;;;;;;;6.73;99.75;97504.75;5031051;28;20025;-75
2021/03/12 03:18:30;;;;;;;8.90;5.53;;;;;;;6.65;99.74;97496.34;5031199;28;20470;-76
2021/03/12 03:20:57;;;;;;;9.45;6.13;;;;;;;6.66;100.00;97492.56;5030973;28;20059;-75
2021/03/12 03:23:23;;;;;;;7.82;5.07;;;;;;;6.65;100.00;97499.06;5030951;28;20566;-74
2021/03/12 03:25:48;;;;;;;9.98;5.47;;;;;;;6.65;100.00;97499.06;5030988;28;20026;-75
2021/03/12 03:28:14;;;;;;;7.97;5.72;;;;;;;6.79;100.00;97486.50;5031020;28;20386;-75
2021/03/12 03:30:39;;;;;;;8.80;5.47;;;;;;;6.88;100.00;97490.22;5031369;28;20037;-75
2021/03/12 03:33:05;;;;;;;10.57;6.00;;;;;;;6.87;100.00;97494.03;5031193;28;20143;-75
2021/03/12 03:35:31;;;;;;;8.73;5.53;;;;;;;6.79;100.00;97487.31;5031226;28;20039;-76
2021/03/12 03:37:57;;;;;;;6.97;4.97;;;;;;;6.79;100.00;97478.34;5031495;28;20394;-77
2021/03/12 03:40:22;;;;;;;8.38;5.75;;;;;;;6.88;100.00;97476.63;5031799;28;20036;-76
2021/03/12 03:42:49;;;;;;;7.50;5.70;;;;;;;6.79;100.00;97484.59;5030791;28;20043;-82
2021/03/12 03:45:15;;;;;;;6.53;5.05;;;;;;;6.74;100.00;97495.47;5031631;28;20048;-76
2021/03/12 03:47:43;;;;;;;6.93;5.43;;;;;;;6.77;100.00;97494.09;5031764;28;20037;-77
2021/03/12 03:50:10;;;;;;;7.10;5.68;;;;;;;6.79;100.00;97498.19;5031696;28;20390;-77
2021/03/12 03:52:36;;;;;;;9.68;6.75;;;;;;;6.81;100.00;97495.97;5032386;28;20371;-77
2021/03/12 03:55:03;;;;;;;9.57;5.25;;;;;;;6.78;100.00;97504.69;5032077;28;20017;-77
2021/03/12 03:57:29;;;;;;;10.55;6.30;;;;;;;6.84;100.00;97498.13;5038968;28;20033;-78
2021/03/12 03:59:57;;;;;;;7.88;5.93;;;;;;;6.93;99.96;97504.59;5034765;28;20025;-81
2021/03/12 04:02:23;;;;;;;8.93;6.43;;;;;;;6.87;99.75;97507.63;5032883;28;20087;-89
2021/03/12 04:04:51;;;;;;;7.57;4.78;;;;;;;6.78;99.12;97512.03;5039282;28;20026;-85
2021/03/12 04:07:18;;;;;;;6.28;4.57;;;;;;;6.76;98.96;97506.09;5039776;28;20028;-87
2021/03/12 04:09:47;;;;;;;7.22;4.95;;;;;;;6.80;98.84;97507.13;5051889;28;20021;-81
2021/03/12 04:12:14;;;;;;;7.03;4.57;;;;;;;6.78;99.47;97509.31;5051903;28;20032;-79
2021/03/12 04:14:41;;;;;;;6.68;4.93;;;;;;;6.85;99.33;97512.53;5052438;28;20112;-81
2021/03/12 04:17:06;;;;;;;6.28;4.60;;;;;;;6.80;99.64;97518.81;5051388;28;20466;-86
2021/03/12 04:19:35;;;;;;;8.05;4.50;;;;;;;6.76;99.32;97523.22;5053893;28;20029;-88
2021/03/12 04:22:01;;;;;;;7.85;4.47;;;;;;;6.73;100.00;97528.38;5059762;28;20044;-85
2021/03/12 04:24:27;;;;;;;6.00;4.95;;;;;;;6.76;100.00;97525.09;5054039;28;20029;-85
2021/03/12 04:26:53;;;;;;;9.50;5.32;;;;;;;6.82;100.00;97532.13;5050173;28;20083;-82
2021/03/12 04:29:18;;;;;;;8.80;5.57;;;;;;;6.75;100.00;97529.72;5051101;28;20553;-82
2021/03/12 04:31:44;;;;;;;7.57;4.30;;;;;;;6.70;99.87;97532.50;5053407;28;20033;-85
2021/03/12 04:34:10;;;;;;;7.22;5.85;;;;;;;6.87;99.53;97542.97;5055743;28;20489;-86
2021/03/12 04:36:37;;;;;;;5.82;4.10;;;;;;;6.89;98.94;97540.78;5054667;28;20036;-84
2021/03/12 04:39:04;;;;;;;6.00;4.13;;;;;;;6.80;99.53;97537.03;5055681;28;20690;-82
2021/03/12 04:41:29;;;;;;;6.95;4.32;;;;;;;6.78;99.88;97544.66;5055104;28;20453;-81
2021/03/12 04:43:55;;;;;;;5.25;4.65;;;;;;;6.73;100.00;97536.53;5054883;28;20072;-83
2021/03/12 04:46:20;;;;;;;7.47;5.32;;;;;;;6.68;100.00;97542.81;5055265;28;20139;-80
2021/03/12 04:48:47;;;;;;;6.60;5.30;;;;;;;6.61;100.00;97541.50;5055257;28;20025;-78
2021/03/12 04:51:13;;;;;;;7.55;5.55;;;;;;;6.69;100.00;97536.28;5054217;28;20036;-85
2021/03/12 04:53:39;;;;;;;7.65;5.97;;;;;;;6.72;100.00;97537.63;5054096;28;20017;-80
2021/03/12 04:56:05;;;;;;;5.93;4.60;;;;;;;6.66;100.00;97541.47;5053874;28;20029;-78
2021/03/12 04:58:31;;;;;;;9.15;6.25;;;;;;;6.60;100.00;97542.59;5054284;28;20025;-75
2021/03/12 05:00:57;;;;;;;7.95;6.10;;;;;;;6.63;100.00;97542.03;5036682;28;20029;-79
2021/03/12 05:03:23;;;;;;;8.25;5.65;;;;;;;6.61;100.00;97545.00;5051317;28;20396;-80
2021/03/12 05:05:51;;;;;;;9.55;5.93;;;;;;;6.62;100.00;97545.81;5053658;28;20024;-87
2021/03/12 05:08:17;;;;;;;8.73;5.40;;;;;;;6.60;100.00;97551.56;5054079;28;20056;-83
2021/03/12 05:11:09;;;;;;;9.27;5.78;;;;;;;6.59;100.00;97549.09;5053463;28;20036;-83
2021/03/12 05:13:35;;;;;;;10.75;7.88;;;;;;;6.56;100.00;97546.94;5040421;28;20079;-80
2021/03/12 05:16:02;;;;;;;10.57;7.60;;;;;;;6.56;100.00;97542.34;5052850;28;20036;-81
2021/03/12 05:18:27;;;;;;;16.88;8.68;;;;;;;6.61;100.00;97541.50;5053485;28;20028;-77
2021/03/12 05:20:53;;;;;;;9.93;6.45;;;;;;;6.65;100.00;97547.97;5055655;28;20033;-76
2021/03/12 05:23:21;;;;;;;7.75;5.78;;;;;;;6.68;100.00;97550.97;5050776;28;20032;-79
2021/03/12 05:25:47;;;;;;;8.77;6.63;;;;;;;6.80;100.00;97550.59;5051973;28;20016;-81
2021/03/12 05:28:13;;;;;;;9.88;7.03;;;;;;;6.82;100.00;97548.44;5052306;28;20082;-80
2021/03/12 05:30:39;;;;;;;10.32;7.00;;;;;;;6.85;100.00;97551.41;5052536;28;20025;-79
2021/03/12 05:33:05;;;;;;;10.65;7.97;;;;;;;6.83;100.00;97552.75;5050559;28;20028;-80
2021/03/12 05:35:30;;;;;;;11.82;7.78;;;;;;;6.84;100.00;97552.50;5051932;28;20078;-80
2021/03/12 05:37:56;;;;;;;13.68;7.68;;;;;;;6.78;100.00;97561.78;5052380;28;20123;-80
2021/03/12 05:40:21;;;;;;;10.63;7.93;;;;;;;6.91;100.00;97563.88;5050501;28;20056;-78
2021/03/12 05:42:51;;;;;;;12.63;7.70;;;;;;;6.89;100.00;97567.97;5051470;28;20081;-88
2021/03/12 05:45:17;;;;;;;11.43;8.20;;;;;;;6.96;100.00;97574.72;5050921;28;20122;-74
2021/03/12 05:47:43;;;;;;;10.07;7.28;;;;;;;6.97;100.00;97570.91;5052783;28;20503;-74
2021/03/12 05:50:08;;;;;;;17.17;9.15;;;;;;;6.96;100.00;97569.28;5054038;28;20033;-74
2021/03/12 05:52:34;;;;;;;10.18;6.88;;;;;;;6.94;100.00;97576.09;5060113;28;20025;-76
2021/03/12 05:55:01;;;;;;;9.95;8.02;;;;;;;7.02;100.00;97578.19;5060846;28;20059;-80
2021/03/12 05:57:29;;;;;;;12.40;8.68;;;;;;;7.04;100.00;97586.09;5059727;28;20051;-76
2021/03/12 05:59:55;;;;;;;11.40;7.35;;;;;;;6.95;100.00;97585.88;5052643;28;20389;-76
2021/03/12 06:02:20;;;;;;;10.13;7.38;;;;;;;7.03;100.00;97590.72;5053084;28;20029;-80
2021/03/12 06:04:46;;;;;;;10.98;8.60;;;;;;;6.99;100.00;97589.66;5046224;28;20025;-76
2021/03/12 06:07:14;;;;;;;12.43;8.68;;;;;;;7.14;100.00;97594.97;5050650;28;20076;-75
2021/03/12 06:09:43;;;;;;;10.20;7.38;;;;;;;6.99;100.00;97584.22;5068516;28;20013;-76
2021/03/12 06:12:10;;;;;;;11.10;7.07;;;;;;;7.03;100.00;97582.56;5050306;28;20036;-74
2021/03/12 06:14:57;;;;;;;11.00;7.55;;;;;;;7.06;100.00;97597.50;5050530;28;20390;-75
2021/03/12 06:17:39;;;;;;;12.43;8.02;;;;;;;7.11;100.00;97598.25;5049121;28;20036;-76
2021/03/12 06:20:24;;;;;;;9.85;7.35;;;;;;;7.10;100.00;97590.41;5043438;28;20039;-75
2021/03/12 06:22:58;;;;;;;11.02;7.25;;;;;;;7.17;100.00;97604.50;5050286;28;20075;-75
2021/03/12 06:25:25;;;;;;;14.73;9.98;;;;;;;7.18;100.00;97603.38;5050405;28;20032;-75
2021/03/12 06:27:56;;;;;;;85.55;23.67;;;;;;;7.21;100.00;97603.66;5052230;28;20114;-76
2021/03/12 06:30:23;;;;;;;8.10;6.63;;;;;;;7.22;100.00;97605.28;5050765;28;20029;-75
2021/03/12 06:32:50;;;;;;;12.93;7.45;;;;;;;7.27;100.00;97602.50;5051924;28;20393;-75
2021/03/12 06:35:17;;;;;;;13.13;7.50;;;;;;;7.30;100.00;97609.31;5050488;28;20377;-75
2021/03/12 06:37:45;;;;;;;11.65;7.40;;;;;;;7.30;100.00;97609.31;5053430;28;20041;-75
2021/03/12 06:40:32;;;;;;;10.85;6.80;;;;;;;7.39;100.00;97621.22;5058347;28;20029;-78
2021/03/12 06:43:01;;;;;;;10.93;8.88;;;;;;;7.44;100.00;97624.72;5057562;28;20508;-75
2021/03/12 06:45:28;;;;;;;18.98;7.50;;;;;;;7.42;100.00;97623.38;5052254;28;20032;-74
2021/03/12 06:48:12;;;;;;;10.05;7.45;;;;;;;7.47;100.00;97624.16;5052160;28;20052;-75
2021/03/12 06:51:10;;;;;;;11.25;7.28;;;;;;;7.60;100.00;97636.28;5051188;28;20075;-75
2021/03/12 06:53:43;;;;;;;102.25;21.75;;;;;;;7.56;100.00;97637.94;5050357;28;20045;-76
2021/03/12 06:56:10;;;;;;;29.15;9.95;;;;;;;7.52;100.00;97645.03;5050986;28;20025;-75
2021/03/12 06:58:36;;;;;;;19.88;7.93;;;;;;;7.53;100.00;97642.06;5049972;28;20111;-75
2021/03/12 07:01:17;;;;;;;17.33;8.85;;;;;;;7.47;100.00;97645.91;5049196;28;20029;-74
2021/03/12 07:03:42;;;;;;;72.30;17.38;;;;;;;7.43;100.00;97650.28;5043063;28;20403;-74
2021/03/12 07:06:19;;;;;;;19.67;9.07;;;;;;;7.53;100.00;97655.66;5038486;28;20026;-74
2021/03/12 07:08:49;;;;;;;13.80;6.72;;;;;;;7.49;100.00;97660.03;5033001;28;20061;-74
2021/03/12 07:11:25;;;;;;;18.42;10.73;;;;;;;7.46;100.00;97655.16;5039878;28;20398;-74
2021/03/12 07:13:55;;;;;;;;;;;;;;;7.43;100.00;97657.63;5044873;28;20021;-73
2021/03/12 07:16:22;;;;;;;28.08;11.55;;;;;;;7.46;100.00;97657.88;5030404;28;20317;-74
2021/03/12 07:18:48;;;;;;;15.05;10.07;;;;;;;7.52;100.00;97670.34;5030979;28;20057;-74
2021/03/12 07:21:15;;;;;;;40.60;13.70;;;;;;;7.55;100.00;97668.97;5033731;28;20025;-74
2021/03/12 07:23:52;;;;;;;66.85;17.20;;;;;;;7.59;99.88;97663.78;5040432;28;20036;-73
2021/03/12 07:26:19;;;;;;;30.17;10.73;;;;;;;7.58;100.00;97670.34;5031064;28;20119;-74
2021/03/12 07:28:46;;;;;;;24.48;9.93;;;;;;;7.62;100.00;97680.34;5042697;28;20506;-73
2021/03/12 07:31:16;;;;;;;22.15;9.40;;;;;;;7.75;99.72;97678.91;5032596;28;20033;-73
2021/03/12 07:34:06;;;;;;;11.00;7.78;;;;;;;7.78;98.77;97692.78;5031778;28;20152;-73
2021/03/12 07:36:32;;;;;;;14.98;8.63;;;;;;;7.74;98.69;97688.97;5030758;28;20029;-73
2021/03/12 07:39:02;;;;;;;51.33;15.70;;;;;;;7.76;98.74;97703.13;5030980;28;20053;-74
2021/03/12 07:41:27;;;;;;;27.08;12.65;;;;;;;7.80;98.08;97703.38;5030688;28;20099;-74
2021/03/12 07:43:54;;;;;;;16.92;9.65;;;;;;;7.76;97.70;97710.50;5030654;28;20035;-74
2021/03/12 07:46:20;;;;;;;25.55;14.32;;;;;;;8.22;94.55;97713.66;5030959;28;20025;-74
2021/03/12 07:48:45;;;;;;;17.08;10.23;;;;;;;7.85;95.62;97716.94;5033047;28;20022;-76
2021/03/12 07:51:15;;;;;;;15.05;8.40;;;;;;;7.86;95.77;97716.66;5032507;28;20067;-75
2021/03/12 07:53:54;;;;;;;10.48;6.60;;;;;;;7.62;96.95;97718.47;5042865;28;20047;-74
2021/03/12 07:56:50;;;;;;;12.63;7.80;;;;;;;8.17;96.24;97725.44;5049990;28;20060;-74
2021/03/12 07:59:16;;;;;;;17.80;9.10;;;;;;;7.80;96.85;97725.16;5050036;28;20025;-74
2021/03/12 08:01:52;;;;;;;82.43;15.80;;;;;;;8.17;95.39;97738.22;5049870;28;20035;-74
2021/03/12 08:04:30;;;;;;;13.55;8.55;;;;;;;7.84;96.74;97737.09;5043340;28;20602;-73
2021/03/12 08:06:57;;;;;;;23.20;9.98;;;;;;;7.90;96.53;97735.97;5046709;28;20166;-73
2021/03/12 08:09:34;;;;;;;23.33;12.05;;;;;;;8.08;94.36;97729.84;5034714;28;20044;-73
2021/03/12 08:12:00;;;;;;;44.17;17.80;;;;;;;7.97;94.97;97731.84;5048666;28;20079;-74
2021/03/12 08:14:26;;;;;;;22.88;10.50;;;;;;;7.88;96.34;97732.72;5053894;28;20021;-73
2021/03/12 08:17:04;;;;;;;14.07;9.73;;;;;;;8.17;95.48;97730.06;5054614;28;20123;-74
2021/03/12 08:19:37;;;;;;;18.17;8.07;;;;;;;8.19;95.39;97728.66;5054271;28;20036;-74
2021/03/12 08:22:28;;;;;;;16.90;8.15;;;;;;;8.50;94.33;97734.69;5054233;28;20029;-74
2021/03/12 08:24:56;;;;;;;13.10;8.48;;;;;;;8.58;93.49;97734.84;5053948;28;20087;-73
2021/03/12 08:27:49;;;;;;;10.52;6.80;;;;;;;8.39;93.70;97728.53;5054353;28;20067;-73
2021/03/12 08:30:23;;;;;;;11.27;7.38;;;;;;;8.47;93.90;97730.63;5052802;28;20044;-73
2021/03/12 08:32:49;;;;;;;13.65;6.57;;;;;;;8.61;93.50;97736.22;5053592;28;20032;-73
2021/03/12 08:35:39;;;;;;;25.02;7.20;;;;;;;8.34;93.70;97736.72;5050194;28;20549;-73
2021/03/12 08:38:10;;;;;;;15.02;6.05;;;;;;;8.63;93.79;97744.09;5049539;28;20050;-73
2021/03/12 08:40:37;;;;;;;14.90;6.20;;;;;;;8.53;93.45;97732.19;5033619;28;20068;-74
2021/03/12 08:43:03;;;;;;;39.72;11.27;;;;;;;8.60;93.43;97737.31;5051582;28;20028;-75
2021/03/12 08:45:35;;;;;;;10.50;6.15;;;;;;;8.62;93.74;97732.38;5053257;28;20465;-73
2021/03/12 08:48:05;;;;;;;40.42;10.90;;;;;;;8.50;93.51;97738.22;5051078;28;20033;-75
2021/03/12 08:50:33;;;;;;;9.60;5.43;;;;;;;8.53;93.56;97743.09;5053141;28;20808;-73
2021/03/12 08:52:58;;;;;;;22.30;7.32;;;;;;;8.38;93.67;97734.25;5051390;28;20417;-74
2021/03/12 08:55:24;;;;;;;15.45;5.38;;;;;;;8.36;93.93;97742.72;5050405;28;20038;-73
2021/03/12 08:57:50;;;;;;;6.78;5.22;;;;;;;8.25;93.59;97741.16;5046134;28;20025;-74
2021/03/12 09:00:15;;;;;;;12.32;4.57;;;;;;;8.32;93.95;97738.13;5039957;28;20037;-74
2021/03/12 09:02:41;;;;;;;9.38;5.05;;;;;;;8.18;93.63;97737.09;5046253;28;20044;-74
2021/03/12 09:05:32;;;;;;;10.45;5.90;;;;;;;8.20;94.39;97734.94;5052781;28;20032;-73
2021/03/12 09:07:58;;;;;;;7.18;4.45;;;;;;;8.19;93.82;97738.75;5034043;28;20036;-74
2021/03/12 09:10:28;;;;;;;10.60;5.05;;;;;;;8.19;94.21;97727.84;5033222;28;20033;-74
2021/03/12 09:12:53;;;;;;;12.27;5.95;;;;;;;8.18;94.03;97727.03;5032719;28;20116;-74
2021/03/12 09:15:25;;;;;;;17.27;6.15;;;;;;;8.12;93.66;97722.72;5037285;28;20434;-74
2021/03/12 09:18:01;;;;;;;9.10;4.65;;;;;;;8.13;94.19;97734.44;5052205;28;20035;-74
2021/03/12 09:20:26;;;;;;;9.50;5.57;;;;;;;8.11;94.19;97725.75;5052696;28;20032;-74
2021/03/12 09:22:54;;;;;;;27.60;8.43;;;;;;;8.15;94.32;97721.34;5052486;28;20039;-74
2021/03/12 09:25:27;;;;;;;12.00;5.13;;;;;;;8.19;94.68;97725.13;5053592;28;20382;-74
2021/03/12 09:28:07;;;;;;;8.73;5.85;;;;;;;8.15;94.86;97719.44;5055234;28;20021;-75
2021/03/12 09:30:39;;;;;;;14.52;6.15;;;;;;;8.28;94.41;97726.97;5060229;28;20025;-77
2021/03/12 09:33:06;;;;;;;9.45;6.30;;;;;;;8.25;94.95;97724.78;5042458;28;20021;-75
2021/03/12 09:35:40;;;;;;;12.27;6.38;;;;;;;8.31;94.78;97720.13;5042247;28;20107;-75
2021/03/12 09:38:07;;;;;;;12.50;5.80;;;;;;;8.38;94.15;97713.28;5052397;28;20149;-75
2021/03/12 09:40:39;;;;;;;7.72;5.85;;;;;;;8.43;94.43;97717.84;5052649;28;20075;-75
2021/03/12 09:43:06;;;;;;;7.97;5.22;;;;;;;8.31;94.59;97720.13;5043592;28;20068;-75
2021/03/12 09:45:32;;;;;;;7.20;5.60;;;;;;;8.50;93.53;97713.69;5032606;28;20034;-74
2021/03/12 09:47:57;;;;;;;43.25;10.88;;;;;;;8.43;93.36;97720.56;5032454;28;20025;-74
2021/03/12 09:50:24;;;;;;;14.77;7.15;;;;;;;8.44;93.47;97722.19;5033591;28;20075;-75
2021/03/12 09:52:56;;;;;;;22.70;7.72;;;;;;;8.51;93.62;97720.78;5032957;28;20033;-75
2021/03/12 09:55:23;;;;;;;8.60;5.80;;;;;;;8.45;94.11;97721.94;5048998;28;20079;-74
2021/03/12 09:57:49;;;;;;;20.13;7.05;;;;;;;8.46;93.72;97715.34;5052768;28;20025;-75
2021/03/12 10:00:23;;;;;;;34.17;10.30;;;;;;;8.53;93.10;97718.56;5050982;28;20030;-75
2021/03/12 10:02:51;;;;;;;18.90;8.95;;;;;;;8.61;92.95;97711.69;5048728;28;20031;-75
2021/03/12 10:05:19;;;;;;;49.70;12.32;;;;;;;8.61;91.89;97709.75;5045388;28;20036;-75
2021/03/12 10:07:46;;;;;;;5.85;4.72;;;;;;;8.75;92.36;97712.59;5016670;28;20053;-75
2021/03/12 10:10:32;;;;;;;8.68;6.97;;;;;;;8.75;91.84;97715.34;5036330;28;20079;-75
2021/03/12 10:13:07;;;;;;;86.38;15.88;;;;;;;8.80;91.59;97706.31;5039482;28;20044;-74
2021/03/12 10:15:38;;;;;;;56.13;14.43;;;;;;;8.80;90.54;97706.31;5047017;28;20025;-74
2021/03/12 10:18:04;;;;;;;58.47;13.32;;;;;;;8.86;90.80;97707.88;5052058;28;20095;-74
2021/03/12 10:20:31;;;;;;;29.17;9.20;;;;;;;8.93;91.35;97702.84;5050913;28;20441;-75
2021/03/12 10:23:06;;;;;;;45.20;12.88;;;;;;;8.79;90.41;97700.03;5051850;28;20431;-75
2021/03/12 10:25:33;;;;;;;19.67;6.18;;;;;;;8.78;90.57;97708.47;5051922;28;20028;-75
2021/03/12 10:28:06;;;;;;;34.58;9.48;;;;;;;8.64;91.31;97707.56;5051712;28;20420;-75
2021/03/12 10:30:34;;;;;;;9.27;5.85;;;;;;;8.69;91.90;97702.88;5050812;28;20102;-75
2021/03/12 10:33:02;;;;;;;78.45;16.88;;;;;;;8.68;91.82;97703.16;5055781;28;20025;-76
2021/03/12 10:35:29;;;;;;;16.40;6.72;;;;;;;8.57;92.20;97700.53;5059323;28;20033;-76
2021/03/12 10:38:19;;;;;;;15.45;6.45;;;;;;;8.60;92.12;97694.50;5045755;28;20694;-75
2021/03/12 10:41:00;;;;;;;15.00;7.22;;;;;;;8.57;92.43;97703.25;5040375;28;20048;-75
2021/03/12 10:43:31;;;;;;;50.88;12.13;;;;;;;8.56;92.11;97696.19;5040072;28;20051;-74
2021/03/12 10:46:02;;;;;;;60.53;10.02;;;;;;;8.63;92.60;97692.28;5031293;28;20017;-76
2021/03/12 10:48:38;;;;;;;20.02;9.10;;;;;;;8.61;92.77;97698.84;5030968;28;20113;-74
2021/03/12 10:51:05;;;;;;;14.25;6.82;;;;;;;8.66;92.36;97689.00;5031096;28;20036;-74
2021/03/12 10:53:42;;;;;;;16.88;7.25;;;;;;;8.60;92.04;97678.16;5050919;28;20040;-74
2021/03/12 10:56:08;;;;;;;15.85;7.25;;;;;;;8.67;92.58;97680.53;5051222;28;20107;-75
2021/03/12 10:58:35;;;;;;;21.85;7.93;;;;;;;8.53;93.51;97680.41;5051372;28;20141;-75
2021/03/12 11:01:12;;;;;;;43.97;12.45;;;;;;;8.55;93.50;97683.63;5051415;28;20071;-74
2021/03/12 11:03:38;;;;;;;;;;;;;;;8.49;93.91;97684.78;5051517;28;20029;-75
2021/03/12 11:06:04;;;;;;;29.95;9.38;;;;;;;8.55;94.32;97680.13;5050001;28;19916;-73
2021/03/12 11:08:30;;;;;;;14.45;9.32;;;;;;;8.50;94.50;97675.53;5042471;28;20479;-73
2021/03/12 11:10:57;;;;;;;17.60;9.55;;;;;;;8.47;94.81;97676.09;5032179;28;20035;-75
2021/03/12 11:13:22;;;;;;;33.47;10.23;;;;;;;8.47;95.35;97665.22;5051368;28;20040;-74
2021/03/12 11:15:48;;;;;;;27.92;11.80;;;;;;;8.49;95.57;97667.63;5049499;28;20082;-75
2021/03/12 11:18:14;;;;;;;18.27;10.15;;;;;;;8.47;95.18;97662.47;5049998;28;20457;-75
2021/03/12 11:20:39;;;;;;;13.93;8.43;;;;;;;8.48;95.51;97666.84;5050601;28;20039;-75
2021/03/12 11:23:05;;;;;;;24.67;9.40;;;;;;;8.45;95.89;97667.41;5050153;28;20037;-75
2021/03/12 11:25:30;;;;;;;15.93;9.55;;;;;;;8.49;95.63;97654.81;5050492;28;20020;-74
2021/03/12 11:27:56;;;;;;;33.13;10.02;;;;;;;8.50;95.39;97652.91;5050391;28;20017;-74
2021/03/12 11:30:22;;;;;;;15.93;7.30;;;;;;;8.46;94.97;97646.41;5049158;28;20035;-74
2021/03/12 11:32:48;;;;;;;13.05;8.90;;;;;;;8.58;95.15;97644.13;5050416;28;20045;-74
2021/03/12 11:35:16;;;;;;;11.77;7.78;;;;;;;8.59;95.42;97641.09;5051083;28;20088;-75
2021/03/12 11:37:42;;;;;;;11.05;9.50;;;;;;;8.55;95.94;97640.03;5050643;28;20073;-74
2021/03/12 11:40:09;;;;;;;13.45;8.20;;;;;;;8.64;96.12;97636.69;5051893;28;20036;-74
2021/03/12 11:42:36;;;;;;;19.90;9.95;;;;;;;8.59;95.74;97629.34;5051992;28;20046;-74